Canaan, New Hampshire
Current Conditions -  °F | °C
As of 9:50 AM on Thursday 30 Oct 2014 (Local Time) from KLEB Reporting Station
Overcast Overcast  
Wind Chill: 45°   Ceiling: 2800
Heat Index: 45°   Visibility: 10mi
Dew Point: 41°   Wind: 0mph
Humidity: 87%   Direction: NA
Pressure: 29.93"   Gusts: NA
Location:  43.65°N, 72.01°W
Report Text: KLEB 301350Z 00000KT 10SM BKN028 OVC075 07/05 A2993 RMK AO2
Loading
Personal Weather Stations






























Interactive Weather Map
Tropical Storm Tracking
New forecast layout! Learn more

10-Day Weather Forecast

Advertisements
Track Severe Weather on mobile